createdAt,value
2023-04-10T00:00:43.254Z,69.60
2023-04-10T00:03:11.695Z,69.60
2023-04-10T00:05:50.668Z,69.60
2023-04-10T00:08:18.720Z,69.60
2023-04-10T00:10:46.771Z,69.60
2023-04-10T00:13:15.926Z,69.60
2023-04-10T00:15:44.065Z,69.50
2023-04-10T00:18:12.560Z,69.50
2023-04-10T00:20:40.725Z,69.40
2023-04-10T00:23:14.764Z,69.40
2023-04-10T00:25:42.885Z,69.40
2023-04-10T00:28:10.943Z,69.50
2023-04-10T00:30:39.024Z,69.40
2023-04-10T00:33:07.139Z,69.30
2023-04-10T00:35:35.222Z,69.40
2023-04-10T00:38:07.194Z,69.50
2023-04-10T00:40:36.630Z,69.50
2023-04-10T00:43:04.702Z,69.40
2023-04-10T00:45:32.753Z,69.40
2023-04-10T00:48:00.830Z,69.40
2023-04-10T00:50:28.940Z,69.40
2023-04-10T00:52:57.262Z,69.30
2023-04-10T00:55:25.416Z,69.30
2023-04-10T00:57:55.697Z,69.20
2023-04-10T01:00:24.306Z,69.20
2023-04-10T01:02:52.528Z,69.20
2023-04-10T01:05:20.691Z,69.20
2023-04-10T01:07:55.539Z,69.20
2023-04-10T01:10:28.340Z,69.20
2023-04-10T01:13:05.762Z,69.10
2023-04-10T01:15:38.001Z,69.00
2023-04-10T01:18:08.218Z,69.10
2023-04-10T01:20:37.173Z,69.10
2023-04-10T01:23:14.770Z,69.00
2023-04-10T01:25:45.023Z,69.10
2023-04-10T01:28:23.166Z,69.10
2023-04-10T01:30:53.745Z,69.10
2023-04-10T01:33:22.521Z,69.00
2023-04-10T01:35:52.045Z,69.10
2023-04-10T01:38:20.962Z,69.00
2023-04-10T01:40:51.358Z,69.00
2023-04-10T01:43:19.415Z,69.00
2023-04-10T01:45:57.443Z,69.00
2023-04-10T01:48:25.650Z,69.00
2023-04-10T01:50:53.766Z,69.00
2023-04-10T01:53:25.270Z,69.00
2023-04-10T01:55:53.707Z,69.00
2023-04-10T01:58:21.938Z,69.00
2023-04-10T02:00:50.606Z,68.90
2023-04-10T02:03:20.404Z,68.90
2023-04-10T02:05:55.369Z,68.90
2023-04-10T02:08:26.143Z,68.90
2023-04-10T02:10:57.506Z,68.80
2023-04-10T02:13:32.120Z,68.80
2023-04-10T02:16:02.075Z,68.70
2023-04-10T02:18:33.300Z,68.90
2023-04-10T02:21:01.668Z,68.80
2023-04-10T02:23:29.828Z,68.90
2023-04-10T02:25:58.596Z,68.80
2023-04-10T02:28:27.163Z,68.70
2023-04-10T02:30:55.309Z,68.80
2023-04-10T02:33:23.388Z,68.80
2023-04-10T02:35:52.848Z,68.80
2023-04-10T02:38:20.927Z,68.80
2023-04-10T02:40:50.379Z,68.70
2023-04-10T02:43:18.870Z,68.80
2023-04-10T02:45:47.326Z,68.70
2023-04-10T02:48:15.448Z,68.70
2023-04-10T02:50:46.377Z,68.70
2023-04-10T02:53:17.340Z,68.70
2023-04-10T02:55:45.717Z,68.70
2023-04-10T02:58:15.168Z,68.70
2023-04-10T03:00:43.400Z,68.70
2023-04-10T03:03:11.581Z,68.60
2023-04-10T03:05:39.786Z,68.60
2023-04-10T03:08:07.846Z,68.60
2023-04-10T03:10:37.317Z,68.60
2023-04-10T03:13:05.686Z,68.60
2023-04-10T03:15:34.061Z,68.60
2023-04-10T03:18:02.268Z,68.50
2023-04-10T03:20:30.352Z,68.60
2023-04-10T03:22:58.422Z,68.60
2023-04-10T03:25:26.550Z,68.50
2023-04-10T03:27:56.017Z,68.50
2023-04-10T03:30:25.543Z,68.50
2023-04-10T03:32:53.592Z,68.50
2023-04-10T03:35:21.809Z,68.50
2023-04-10T03:37:49.875Z,68.50
2023-04-10T03:40:17.949Z,68.40
2023-04-10T03:42:46.567Z,68.40
2023-04-10T03:45:16.334Z,68.30
2023-04-10T03:47:44.443Z,68.40
2023-04-10T03:50:12.529Z,68.30
2023-04-10T03:52:43.334Z,68.00
2023-04-10T03:55:11.382Z,68.30
2023-04-10T03:57:39.461Z,68.20
2023-04-10T04:00:08.882Z,68.40
2023-04-10T04:02:38.447Z,68.30
2023-04-10T04:05:07.305Z,68.30
2023-04-10T04:07:35.458Z,68.20
2023-04-10T04:10:03.766Z,68.30
2023-04-10T04:12:37.404Z,68.10
2023-04-10T04:15:06.154Z,68.20
2023-04-10T04:17:34.249Z,68.10
2023-04-10T04:20:03.957Z,68.30
2023-04-10T04:22:32.097Z,68.20
2023-04-10T04:25:00.158Z,68.10
2023-04-10T04:27:28.273Z,68.20
2023-04-10T04:29:56.300Z,68.20
2023-04-10T04:32:24.370Z,68.00
2023-04-10T04:34:52.428Z,68.10
2023-04-10T04:37:21.842Z,67.90
2023-04-10T04:39:49.885Z,68.10
2023-04-10T04:42:17.939Z,68.10
2023-04-10T04:44:46.013Z,68.10
2023-04-10T04:47:14.062Z,68.10
2023-04-10T04:49:42.118Z,68.10
2023-04-10T04:52:10.893Z,68.00
2023-04-10T04:54:40.444Z,68.10
2023-04-10T04:57:08.680Z,67.90
2023-04-10T04:59:38.288Z,68.10
2023-04-10T05:02:06.599Z,68.00
2023-04-10T05:04:35.060Z,67.90
2023-04-10T05:07:03.108Z,68.00
2023-04-10T05:09:31.199Z,68.00
2023-04-10T05:12:00.626Z,68.00
2023-04-10T05:14:28.688Z,67.90
2023-04-10T05:16:56.803Z,67.90
2023-04-10T05:19:24.880Z,68.00
2023-04-10T05:21:52.905Z,67.80
2023-04-10T05:24:21.608Z,67.70
2023-04-10T05:26:49.672Z,67.90
2023-04-10T05:29:19.102Z,67.90
2023-04-10T05:31:47.600Z,67.90
2023-04-10T05:34:15.743Z,68.00
2023-04-10T05:36:43.836Z,67.90
2023-04-10T05:39:11.887Z,67.90
2023-04-10T05:41:39.987Z,67.80
2023-04-10T05:44:08.102Z,67.90
2023-04-10T05:46:37.599Z,67.90
2023-04-10T05:49:05.688Z,67.90
2023-04-10T05:51:33.748Z,67.80
2023-04-10T05:54:01.873Z,67.80
2023-04-10T05:56:29.921Z,67.90
2023-04-10T05:58:58.030Z,67.90
2023-04-10T06:01:26.152Z,67.90
2023-04-10T06:03:57.627Z,67.70
2023-04-10T06:06:26.533Z,67.90
2023-04-10T06:08:54.811Z,67.90
2023-04-10T06:11:23.487Z,67.90
2023-04-10T06:13:51.588Z,67.90
2023-04-10T06:16:19.648Z,67.90
2023-04-10T06:18:47.905Z,67.90
2023-04-10T06:21:17.312Z,67.80
2023-04-10T06:23:45.357Z,67.90
2023-04-10T06:26:13.432Z,67.80
2023-04-10T06:28:42.124Z,67.70
2023-04-10T06:31:10.598Z,67.60
2023-04-10T06:33:43.482Z,67.70
2023-04-10T06:36:11.724Z,67.70
2023-04-10T06:38:41.309Z,67.70
2023-04-10T06:41:09.468Z,67.80
2023-04-10T06:43:38.087Z,67.70
2023-04-10T06:46:06.644Z,67.70
2023-04-10T06:48:34.813Z,67.70
2023-04-10T06:51:02.926Z,67.70
2023-04-10T06:53:31.031Z,67.60
2023-04-10T06:56:03.077Z,67.60
2023-04-10T06:58:32.114Z,67.60
2023-04-10T07:01:04.335Z,67.60
2023-04-10T07:03:33.947Z,67.50
2023-04-10T07:06:03.358Z,67.50
2023-04-10T07:08:31.516Z,67.60
2023-04-10T07:11:01.388Z,67.60
2023-04-10T07:13:29.422Z,67.60
2023-04-10T07:15:57.534Z,67.60
2023-04-10T07:18:25.885Z,67.60
2023-04-10T07:20:54.166Z,67.60
2023-04-10T07:23:22.703Z,67.50
2023-04-10T07:25:51.686Z,67.50
2023-04-10T07:28:21.211Z,67.50
2023-04-10T07:30:49.281Z,67.50
2023-04-10T07:33:17.439Z,67.50
2023-04-10T07:35:45.682Z,67.50
2023-04-10T07:38:14.218Z,67.40
2023-04-10T07:40:42.277Z,67.30
2023-04-10T07:43:10.339Z,67.30
2023-04-10T07:45:39.810Z,67.40
2023-04-10T07:48:08.454Z,67.30
2023-04-10T07:50:37.021Z,67.40
2023-04-10T07:53:08.009Z,67.50
2023-04-10T07:55:39.280Z,67.40
2023-04-10T07:58:07.318Z,67.40
2023-04-10T08:00:35.554Z,67.30
2023-04-10T08:03:05.687Z,67.40
2023-04-10T08:05:33.966Z,67.40
2023-04-10T08:08:02.081Z,67.20
2023-04-10T08:10:30.150Z,67.40
2023-04-10T08:12:58.222Z,67.30
2023-04-10T08:15:26.383Z,67.20
2023-04-10T08:17:54.464Z,67.20
2023-04-10T08:20:23.916Z,67.30
2023-04-10T08:22:58.918Z,67.20
2023-04-10T08:25:31.925Z,67.30
2023-04-10T08:28:01.554Z,67.30
2023-04-10T08:30:29.731Z,67.30
2023-04-10T08:32:57.819Z,67.30
2023-04-10T08:35:27.294Z,67.30
2023-04-10T08:38:11.583Z,67.30
2023-04-10T08:40:41.887Z,67.20
2023-04-10T08:43:09.976Z,67.10
2023-04-10T08:45:38.013Z,67.10
2023-04-10T08:48:07.121Z,67.20
2023-04-10T08:50:37.072Z,67.10
2023-04-10T08:53:14.725Z,67.10
2023-04-10T08:55:42.857Z,67.10
2023-04-10T08:58:11.471Z,67.00
2023-04-10T09:00:39.666Z,67.10
2023-04-10T09:03:11.307Z,67.10
2023-04-10T09:05:40.892Z,67.10
2023-04-10T09:08:09.158Z,67.10
2023-04-10T09:10:37.208Z,67.10
2023-04-10T09:13:05.439Z,67.10
2023-04-10T09:15:42.519Z,67.10
2023-04-10T09:18:10.657Z,67.00
2023-04-10T09:20:40.089Z,66.90
2023-04-10T09:23:21.351Z,67.00
2023-04-10T09:25:51.104Z,67.00
2023-04-10T09:28:19.314Z,67.00
2023-04-10T09:30:49.549Z,67.00
2023-04-10T09:33:24.170Z,67.00
2023-04-10T09:35:53.596Z,67.10
2023-04-10T09:38:25.946Z,67.10
2023-04-10T09:40:54.887Z,67.10
2023-04-10T09:43:24.072Z,67.10
2023-04-10T09:45:53.122Z,67.10
2023-04-10T09:48:21.366Z,67.20
2023-04-10T09:50:49.389Z,67.20
2023-04-10T09:53:20.070Z,67.30
2023-04-10T09:55:55.583Z,67.40
2023-04-10T09:58:23.641Z,67.30
2023-04-10T10:00:52.188Z,67.30
2023-04-10T10:03:21.369Z,67.40
2023-04-10T10:05:50.613Z,67.30
2023-04-10T10:08:20.069Z,67.30
2023-04-10T10:10:49.288Z,67.10
2023-04-10T10:13:20.833Z,67.10
2023-04-10T10:15:53.238Z,67.20
2023-04-10T10:18:24.240Z,67.30
2023-04-10T10:20:52.445Z,67.20
2023-04-10T10:23:21.864Z,67.20
2023-04-10T10:25:50.413Z,67.20
2023-04-10T10:28:18.850Z,67.30
2023-04-10T10:30:46.900Z,67.40
2023-04-10T10:33:15.031Z,67.50
2023-04-10T10:35:43.090Z,67.40
2023-04-10T10:38:11.178Z,67.40
2023-04-10T10:40:44.262Z,67.40
2023-04-10T10:43:14.877Z,67.40
2023-04-10T10:46:00.594Z,67.40
2023-04-10T10:48:29.083Z,67.40
2023-04-10T10:50:58.933Z,67.30
2023-04-10T10:53:38.820Z,67.50
2023-04-10T10:56:37.188Z,67.40
2023-04-10T10:59:05.375Z,67.50
2023-04-10T11:02:14.186Z,67.50
2023-04-10T11:04:45.808Z,67.40
2023-04-10T11:07:14.120Z,67.40
2023-04-10T11:09:51.498Z,67.40
2023-04-10T11:12:22.924Z,67.60
2023-04-10T11:15:00.945Z,67.50
2023-04-10T11:17:47.609Z,67.60
2023-04-10T11:20:15.768Z,67.70
2023-04-10T11:23:16.546Z,67.60
2023-04-10T11:25:51.454Z,67.60
2023-04-10T11:28:41.655Z,67.60
2023-04-10T11:31:20.119Z,67.50
2023-04-10T11:33:48.433Z,67.70
2023-04-10T11:36:17.484Z,67.60
2023-04-10T11:39:00.923Z,67.60
2023-04-10T11:41:32.146Z,67.70
2023-04-10T11:44:02.353Z,67.70
2023-04-10T11:46:31.962Z,67.70
2023-04-10T11:49:02.251Z,67.70
2023-04-10T11:51:31.072Z,67.90
2023-04-10T11:54:09.240Z,67.90
2023-04-10T11:56:37.418Z,67.90
2023-04-10T11:59:10.834Z,67.90
2023-04-10T12:01:42.494Z,67.80
2023-04-10T12:04:17.913Z,67.70
2023-04-10T12:06:46.903Z,67.90
2023-04-10T12:09:15.717Z,67.80
2023-04-10T12:11:50.392Z,67.90
2023-04-10T12:14:20.071Z,67.80
2023-04-10T12:16:49.839Z,67.80
2023-04-10T12:19:19.013Z,67.90
2023-04-10T12:21:47.051Z,67.90
2023-04-10T12:24:15.984Z,67.80
2023-04-10T12:26:49.586Z,67.80
2023-04-10T12:29:19.005Z,67.80
2023-04-10T12:31:47.040Z,67.90
2023-04-10T12:34:19.823Z,67.90
2023-04-10T12:36:53.473Z,67.90
2023-04-10T12:39:25.580Z,67.90
2023-04-10T12:41:53.696Z,67.90
2023-04-10T12:44:23.158Z,67.90
2023-04-10T12:46:51.244Z,67.90
2023-04-10T12:49:19.772Z,67.90
2023-04-10T12:51:48.550Z,67.90
2023-04-10T12:54:29.769Z,67.90
2023-04-10T12:56:57.837Z,67.90
2023-04-10T12:59:28.046Z,67.90
2023-04-10T13:01:56.281Z,68.00
2023-04-10T13:04:26.253Z,67.90
2023-04-10T13:06:55.613Z,68.00
2023-04-10T13:09:23.679Z,68.00
2023-04-10T13:11:52.479Z,68.00
2023-04-10T13:14:20.522Z,68.10
2023-04-10T13:16:49.967Z,68.20
2023-04-10T13:19:18.016Z,68.00
2023-04-10T13:21:46.008Z,68.10
2023-04-10T13:24:16.501Z,68.10
2023-04-10T13:26:44.877Z,68.10
2023-04-10T13:29:13.087Z,68.10
2023-04-10T13:31:41.217Z,68.10
2023-04-10T13:34:10.744Z,68.20
2023-04-10T13:36:38.870Z,68.10
2023-04-10T13:39:07.018Z,68.20
2023-04-10T13:41:35.097Z,68.20
2023-04-10T13:44:03.147Z,68.30
2023-04-10T13:46:31.839Z,68.10
2023-04-10T13:49:00.156Z,68.20
2023-04-10T13:51:29.890Z,68.00
2023-04-10T13:53:58.918Z,67.90
2023-04-10T13:56:27.102Z,68.40
2023-04-10T13:58:55.285Z,68.60
2023-04-10T14:01:26.094Z,68.20
2023-04-10T14:03:54.302Z,68.20
2023-04-10T14:06:22.460Z,68.20
2023-04-10T14:08:51.886Z,68.50
2023-04-10T14:11:19.949Z,68.50
2023-04-10T14:13:48.028Z,68.30
2023-04-10T14:16:16.145Z,68.30
2023-04-10T14:18:44.219Z,68.30
2023-04-10T14:21:12.305Z,68.20
2023-04-10T14:23:40.364Z,68.20
2023-04-10T14:26:09.875Z,68.20
2023-04-10T14:28:37.896Z,68.10
2023-04-10T14:31:06.357Z,68.20
2023-04-10T14:33:35.157Z,68.30
2023-04-10T14:36:08.294Z,68.30
2023-04-10T14:38:36.972Z,68.30
2023-04-10T14:41:05.094Z,68.20
2023-04-10T14:43:34.708Z,68.30
2023-04-10T14:46:02.783Z,68.30
2023-04-10T14:48:31.093Z,68.30
2023-04-10T14:50:59.190Z,68.20
2023-04-10T14:53:27.279Z,68.10
2023-04-10T14:55:55.322Z,68.10
2023-04-10T14:58:23.407Z,68.10
2023-04-10T15:00:53.004Z,68.10
2023-04-10T15:03:23.721Z,68.20
2023-04-10T15:06:00.260Z,68.20
2023-04-10T15:08:28.319Z,68.20
2023-04-10T15:10:56.361Z,68.10
2023-04-10T15:13:24.436Z,68.10
2023-04-10T15:15:54.286Z,68.10
2023-04-10T15:18:22.396Z,68.10
2023-04-10T15:20:50.476Z,68.10
2023-04-10T15:23:18.579Z,68.10
2023-04-10T15:25:46.618Z,68.10
2023-04-10T15:28:14.718Z,68.20
2023-04-10T15:30:44.620Z,68.20
2023-04-10T15:33:14.091Z,68.20
2023-04-10T15:35:42.229Z,68.10
2023-04-10T15:38:10.455Z,68.00
2023-04-10T15:40:38.536Z,68.10
2023-04-10T15:43:06.605Z,68.00
2023-04-10T15:45:36.012Z,68.10
2023-04-10T15:48:04.693Z,68.10
2023-04-10T15:50:40.417Z,68.10
2023-04-10T15:53:08.460Z,68.10
2023-04-10T15:55:40.363Z,68.10
2023-04-10T15:58:13.900Z,68.10
2023-04-10T16:00:41.936Z,68.10
2023-04-10T16:03:10.133Z,68.10
2023-04-10T16:05:39.637Z,68.10
2023-04-10T16:08:07.707Z,68.20
2023-04-10T16:10:36.064Z,68.10
2023-04-10T16:13:06.709Z,68.10
2023-04-10T16:15:38.128Z,68.10
2023-04-10T16:18:06.651Z,68.10
2023-04-10T16:20:34.944Z,68.10
2023-04-10T16:23:04.390Z,68.10
2023-04-10T16:25:32.461Z,68.00
2023-04-10T16:28:00.544Z,68.10
2023-04-10T16:30:31.974Z,68.10
2023-04-10T16:33:00.042Z,68.00
2023-04-10T16:35:28.199Z,68.00
2023-04-10T16:37:56.304Z,68.10
2023-04-10T16:40:27.707Z,68.10
2023-04-10T16:42:55.780Z,68.10
2023-04-10T16:45:23.848Z,68.10
2023-04-10T16:47:51.952Z,68.10
2023-04-10T16:50:26.028Z,68.10
2023-04-10T16:52:54.129Z,68.10
2023-04-10T16:55:22.190Z,68.10
2023-04-10T16:57:51.639Z,68.10
2023-04-10T17:00:20.302Z,68.10
2023-04-10T17:02:49.348Z,68.20
2023-04-10T17:05:17.561Z,68.20
2023-04-10T17:07:45.642Z,68.20
2023-04-10T17:10:13.705Z,68.20
2023-04-10T17:12:42.497Z,68.10
2023-04-10T17:15:12.878Z,68.10
2023-04-10T17:17:41.115Z,68.10
2023-04-10T17:20:10.045Z,68.20
2023-04-10T17:22:38.812Z,68.10
2023-04-10T17:25:08.463Z,68.20
2023-04-10T17:27:38.460Z,68.20
2023-04-10T17:30:14.034Z,68.20
2023-04-10T17:32:43.386Z,68.20
2023-04-10T17:35:11.512Z,68.30
2023-04-10T17:37:39.584Z,68.30
2023-04-10T17:40:08.941Z,68.20
2023-04-10T17:42:36.974Z,68.20
2023-04-10T17:45:05.498Z,68.30
2023-04-10T17:47:34.936Z,68.30
2023-04-10T17:50:03.033Z,68.30
2023-04-10T17:52:31.084Z,68.20
2023-04-10T17:55:00.444Z,68.30
2023-04-10T17:57:28.490Z,68.30
2023-04-10T17:59:56.578Z,68.30
2023-04-10T18:02:24.726Z,68.30
2023-04-10T18:04:54.177Z,68.30
2023-04-10T18:07:22.243Z,68.30
2023-04-10T18:09:50.402Z,68.30
2023-04-10T18:12:18.455Z,68.30
2023-04-10T18:14:48.101Z,68.40
2023-04-10T18:17:16.114Z,68.40
2023-04-10T18:19:44.153Z,68.50
2023-04-10T18:22:13.617Z,68.50
2023-04-10T18:24:41.662Z,68.50
2023-04-10T18:27:09.694Z,68.50
2023-04-10T18:29:37.787Z,68.50
2023-04-10T18:32:07.615Z,68.50
2023-04-10T18:34:36.024Z,68.50
2023-04-10T18:37:04.063Z,68.50
2023-04-10T18:39:33.746Z,68.50
2023-04-10T18:42:03.022Z,68.60
2023-04-10T18:44:34.528Z,68.60
2023-04-10T18:47:04.626Z,68.60
2023-04-10T18:49:32.995Z,68.60
2023-04-10T18:52:01.514Z,68.60
2023-04-10T18:54:30.279Z,68.70
2023-04-10T18:56:59.765Z,68.70
2023-04-10T18:59:28.186Z,68.70
2023-04-10T19:01:56.337Z,68.70
2023-04-10T19:04:25.284Z,68.70
2023-04-10T19:06:53.399Z,68.80
2023-04-10T19:09:21.450Z,68.80
2023-04-10T19:11:49.501Z,68.80
2023-04-10T19:14:18.971Z,68.80
2023-04-10T19:16:47.034Z,68.80
2023-04-10T19:19:15.075Z,68.90
2023-04-10T19:21:44.094Z,68.90
2023-04-10T19:24:12.184Z,68.90
2023-04-10T19:26:40.325Z,69.00
2023-04-10T19:29:09.641Z,69.00
2023-04-10T19:31:39.113Z,69.00
2023-04-10T19:34:09.368Z,69.10
2023-04-10T19:36:37.520Z,69.10
2023-04-10T19:39:06.332Z,69.10
2023-04-10T19:41:34.431Z,69.20
2023-04-10T19:44:02.553Z,69.20
2023-04-10T19:46:30.692Z,69.20
2023-04-10T19:49:00.135Z,69.20
2023-04-10T19:51:28.268Z,69.30
2023-04-10T19:54:02.114Z,69.30
2023-04-10T19:56:30.614Z,69.30
2023-04-10T19:58:58.931Z,69.30
2023-04-10T20:01:27.390Z,69.40
2023-04-10T20:03:56.295Z,69.40
2023-04-10T20:06:27.243Z,69.50
2023-04-10T20:08:55.542Z,69.50
2023-04-10T20:11:24.799Z,69.50
2023-04-10T20:13:53.016Z,69.60
2023-04-10T20:16:21.160Z,69.60
2023-04-10T20:18:49.246Z,69.70
2023-04-10T20:21:17.322Z,69.70
2023-04-10T20:23:46.729Z,69.80
2023-04-10T20:26:14.887Z,69.80
2023-04-10T20:28:42.954Z,69.90
2023-04-10T20:31:11.781Z,69.90
2023-04-10T20:33:39.842Z,70.00
2023-04-10T20:36:08.555Z,70.10
2023-04-10T20:38:36.761Z,70.10
2023-04-10T20:41:06.460Z,70.20
2023-04-10T20:43:34.552Z,70.20
2023-04-10T20:46:04.736Z,70.30
2023-04-10T20:48:35.774Z,70.30
2023-04-10T20:51:03.880Z,70.30
2023-04-10T20:53:31.971Z,70.30
2023-04-10T20:56:00.385Z,70.40
2023-04-10T20:58:29.820Z,70.40
2023-04-10T21:00:57.895Z,70.50
2023-04-10T21:03:26.277Z,70.50
2023-04-10T21:05:54.493Z,70.50
2023-04-10T21:08:22.597Z,70.60
2023-04-10T21:10:51.364Z,70.60
2023-04-10T21:13:20.167Z,70.70
2023-04-10T21:15:49.751Z,70.70
2023-04-10T21:18:17.864Z,70.70
2023-04-10T21:20:46.107Z,70.80
2023-04-10T21:23:14.176Z,70.80
2023-04-10T21:25:42.234Z,70.90
2023-04-10T21:28:10.324Z,70.90
2023-04-10T21:30:38.393Z,71.00
2023-04-10T21:33:08.000Z,71.00
2023-04-10T21:35:36.194Z,71.10
2023-04-10T21:38:04.277Z,71.20
2023-04-10T21:40:34.383Z,71.20
2023-04-10T21:43:02.922Z,71.20
2023-04-10T21:45:31.048Z,71.30
2023-04-10T21:48:00.409Z,71.30
2023-04-10T21:50:29.975Z,71.40
2023-04-10T21:53:00.043Z,71.50
2023-04-10T21:55:28.166Z,71.40
2023-04-10T21:57:56.213Z,71.50
2023-04-10T22:00:24.261Z,71.50
2023-04-10T22:02:52.982Z,71.60
2023-04-10T22:05:21.224Z,71.60
2023-04-10T22:07:50.721Z,71.60
2023-04-10T22:10:18.932Z,71.80
2023-04-10T22:12:49.063Z,71.80
2023-04-10T22:15:17.502Z,71.80
2023-04-10T22:17:45.724Z,71.80
2023-04-10T22:20:14.216Z,72.00
2023-04-10T22:22:42.379Z,72.00
2023-04-10T22:25:11.920Z,72.00
2023-04-10T22:27:40.000Z,72.00
2023-04-10T22:30:09.886Z,72.00
2023-04-10T22:32:38.118Z,72.10
2023-04-10T22:35:07.424Z,72.10
2023-04-10T22:37:35.593Z,72.10
2023-04-10T22:40:03.803Z,72.10
2023-04-10T22:42:33.274Z,72.20
2023-04-10T22:45:01.362Z,72.20
2023-04-10T22:47:29.386Z,72.20
2023-04-10T22:49:57.443Z,72.20
2023-04-10T22:52:25.550Z,72.20
2023-04-10T22:54:53.643Z,72.20
2023-04-10T22:57:21.667Z,72.20
2023-04-10T22:59:51.095Z,72.30
2023-04-10T23:02:19.242Z,72.30
2023-04-10T23:04:47.495Z,72.30
2023-04-10T23:07:15.620Z,72.30
2023-04-10T23:09:43.667Z,72.30
2023-04-10T23:12:11.734Z,72.30
2023-04-10T23:14:39.791Z,72.40
2023-04-10T23:17:09.216Z,72.40
2023-04-10T23:19:37.293Z,72.40
2023-04-10T23:22:05.433Z,72.40
2023-04-10T23:24:33.526Z,72.50
2023-04-10T23:27:01.594Z,72.50
2023-04-10T23:29:29.697Z,72.50
2023-04-10T23:31:57.763Z,72.50
2023-04-10T23:34:27.602Z,72.50
2023-04-10T23:36:55.836Z,72.50
2023-04-10T23:39:23.926Z,72.50
2023-04-10T23:41:52.047Z,72.60
2023-04-10T23:44:20.160Z,72.60
2023-04-10T23:46:49.430Z,72.70
2023-04-10T23:49:17.667Z,72.70
2023-04-10T23:51:47.120Z,72.80
2023-04-10T23:54:15.444Z,72.80
2023-04-10T23:56:43.495Z,72.90
2023-04-10T23:59:12.311Z,72.80
